sensor_id;sensor_type;location;lat;lon;timestamp;P1;durP1;ratioP1;P2;durP2;ratioP2
34900;SDS011;21112;51.976;5.660;2022-07-05T00:01:15;1.65;;;1.08;;
34900;SDS011;21112;51.976;5.660;2022-07-05T00:03:42;2.22;;;1.20;;
34900;SDS011;21112;51.976;5.660;2022-07-05T00:06:11;2.78;;;1.17;;
34900;SDS011;21112;51.976;5.660;2022-07-05T00:11:05;2.80;;;1.20;;
34900;SDS011;21112;51.976;5.660;2022-07-05T00:13:32;1.98;;;1.02;;
34900;SDS011;21112;51.976;5.660;2022-07-05T00:18:28;2.20;;;1.33;;
34900;SDS011;21112;51.976;5.660;2022-07-05T00:20:55;3.63;;;1.17;;
34900;SDS011;21112;51.976;5.660;2022-07-05T00:23:21;2.83;;;1.30;;
34900;SDS011;21112;51.976;5.660;2022-07-05T00:25:50;2.63;;;1.20;;
34900;SDS011;21112;51.976;5.660;2022-07-05T00:28:19;2.42;;;1.05;;
34900;SDS011;21112;51.976;5.660;2022-07-05T00:30:45;2.00;;;1.20;;
34900;SDS011;21112;51.976;5.660;2022-07-05T00:33:12;1.75;;;1.20;;
34900;SDS011;21112;51.976;5.660;2022-07-05T00:35:39;2.65;;;1.27;;
34900;SDS011;21112;51.976;5.660;2022-07-05T00:38:05;4.25;;;1.23;;
34900;SDS011;21112;51.976;5.660;2022-07-05T00:40:32;3.08;;;1.45;;
34900;SDS011;21112;51.976;5.660;2022-07-05T00:42:58;1.67;;;1.08;;
34900;SDS011;21112;51.976;5.660;2022-07-05T00:45:26;4.63;;;1.17;;
34900;SDS011;21112;51.976;5.660;2022-07-05T00:47:53;2.42;;;1.10;;
34900;SDS011;21112;51.976;5.660;2022-07-05T00:50:19;2.15;;;1.00;;
34900;SDS011;21112;51.976;5.660;2022-07-05T00:52:46;3.70;;;1.05;;
34900;SDS011;21112;51.976;5.660;2022-07-05T00:55:13;2.85;;;1.35;;
34900;SDS011;21112;51.976;5.660;2022-07-05T00:57:39;2.60;;;1.10;;
34900;SDS011;21112;51.976;5.660;2022-07-05T01:00:06;5.97;;;1.30;;
34900;SDS011;21112;51.976;5.660;2022-07-05T01:02:34;1.98;;;1.15;;
34900;SDS011;21112;51.976;5.660;2022-07-05T01:05:01;2.08;;;1.23;;
34900;SDS011;21112;51.976;5.660;2022-07-05T01:07:31;2.30;;;1.25;;
34900;SDS011;21112;51.976;5.660;2022-07-05T01:09:58;2.30;;;1.10;;
34900;SDS011;21112;51.976;5.660;2022-07-05T01:12:24;2.85;;;1.20;;
34900;SDS011;21112;51.976;5.660;2022-07-05T01:14:51;2.45;;;1.08;;
34900;SDS011;21112;51.976;5.660;2022-07-05T01:17:18;2.70;;;1.08;;
34900;SDS011;21112;51.976;5.660;2022-07-05T01:19:47;3.58;;;1.17;;
34900;SDS011;21112;51.976;5.660;2022-07-05T01:22:16;2.05;;;1.05;;
34900;SDS011;21112;51.976;5.660;2022-07-05T01:24:45;3.17;;;1.10;;
34900;SDS011;21112;51.976;5.660;2022-07-05T01:27:12;4.28;;;1.35;;
34900;SDS011;21112;51.976;5.660;2022-07-05T01:29:40;2.28;;;1.30;;
34900;SDS011;21112;51.976;5.660;2022-07-05T01:32:07;3.30;;;1.10;;
34900;SDS011;21112;51.976;5.660;2022-07-05T01:34:36;1.58;;;0.93;;
34900;SDS011;21112;51.976;5.660;2022-07-05T01:37:03;2.33;;;1.15;;
34900;SDS011;21112;51.976;5.660;2022-07-05T01:39:30;1.90;;;1.30;;
34900;SDS011;21112;51.976;5.660;2022-07-05T01:41:58;3.38;;;1.08;;
34900;SDS011;21112;51.976;5.660;2022-07-05T01:44:24;1.85;;;1.08;;
34900;SDS011;21112;51.976;5.660;2022-07-05T01:46:51;3.33;;;1.10;;
34900;SDS011;21112;51.976;5.660;2022-07-05T01:49:20;2.95;;;1.00;;
34900;SDS011;21112;51.976;5.660;2022-07-05T01:51:49;3.08;;;1.13;;
34900;SDS011;21112;51.976;5.660;2022-07-05T01:54:18;5.00;;;1.30;;
34900;SDS011;21112;51.976;5.660;2022-07-05T01:56:44;1.80;;;1.02;;
34900;SDS011;21112;51.976;5.660;2022-07-05T01:59:12;2.92;;;1.23;;
34900;SDS011;21112;51.976;5.660;2022-07-05T02:01:39;1.98;;;1.08;;
34900;SDS011;21112;51.976;5.660;2022-07-05T02:04:07;2.60;;;1.27;;
34900;SDS011;21112;51.976;5.660;2022-07-05T02:06:35;1.30;;;0.90;;
34900;SDS011;21112;51.976;5.660;2022-07-05T02:09:02;2.00;;;1.10;;
34900;SDS011;21112;51.976;5.660;2022-07-05T02:11:29;2.43;;;1.10;;
34900;SDS011;21112;51.976;5.660;2022-07-05T02:13:57;2.28;;;1.20;;
34900;SDS011;21112;51.976;5.660;2022-07-05T02:16:25;1.95;;;0.98;;
34900;SDS011;21112;51.976;5.660;2022-07-05T02:18:52;3.35;;;1.10;;
34900;SDS011;21112;51.976;5.660;2022-07-05T02:21:19;3.70;;;1.33;;
34900;SDS011;21112;51.976;5.660;2022-07-05T02:23:45;1.80;;;0.95;;
34900;SDS011;21112;51.976;5.660;2022-07-05T02:26:12;1.65;;;1.23;;
34900;SDS011;21112;51.976;5.660;2022-07-05T02:28:39;2.20;;;1.02;;
34900;SDS011;21112;51.976;5.660;2022-07-05T02:31:06;1.73;;;1.02;;
34900;SDS011;21112;51.976;5.660;2022-07-05T02:33:34;3.65;;;1.33;;
34900;SDS011;21112;51.976;5.660;2022-07-05T02:36:04;2.13;;;1.10;;
34900;SDS011;21112;51.976;5.660;2022-07-05T02:38:31;3.80;;;1.10;;
34900;SDS011;21112;51.976;5.660;2022-07-05T02:40:57;3.53;;;1.58;;
34900;SDS011;21112;51.976;5.660;2022-07-05T02:43:24;3.03;;;1.08;;
34900;SDS011;21112;51.976;5.660;2022-07-05T02:45:51;1.33;;;0.90;;
34900;SDS011;21112;51.976;5.660;2022-07-05T02:48:17;1.55;;;1.10;;
34900;SDS011;21112;51.976;5.660;2022-07-05T02:50:45;2.90;;;1.08;;
34900;SDS011;21112;51.976;5.660;2022-07-05T02:53:13;1.77;;;1.05;;
34900;SDS011;21112;51.976;5.660;2022-07-05T02:55:39;2.05;;;1.10;;
34900;SDS011;21112;51.976;5.660;2022-07-05T02:58:06;2.60;;;1.23;;
34900;SDS011;21112;51.976;5.660;2022-07-05T03:00:32;2.25;;;1.00;;
34900;SDS011;21112;51.976;5.660;2022-07-05T03:02:59;3.03;;;1.20;;
34900;SDS011;21112;51.976;5.660;2022-07-05T03:05:25;2.55;;;1.25;;
34900;SDS011;21112;51.976;5.660;2022-07-05T03:07:53;3.28;;;1.17;;
34900;SDS011;21112;51.976;5.660;2022-07-05T03:10:20;2.10;;;1.20;;
34900;SDS011;21112;51.976;5.660;2022-07-05T03:12:46;3.97;;;1.30;;
34900;SDS011;21112;51.976;5.660;2022-07-05T03:15:13;4.53;;;1.30;;
34900;SDS011;21112;51.976;5.660;2022-07-05T03:17:41;2.25;;;1.20;;
34900;SDS011;21112;51.976;5.660;2022-07-05T03:20:08;3.05;;;1.30;;
34900;SDS011;21112;51.976;5.660;2022-07-05T03:22:35;1.88;;;1.10;;
34900;SDS011;21112;51.976;5.660;2022-07-05T03:25:03;2.33;;;1.20;;
34900;SDS011;21112;51.976;5.660;2022-07-05T03:29:57;1.60;;;1.10;;
34900;SDS011;21112;51.976;5.660;2022-07-05T03:32:24;3.08;;;1.08;;
34900;SDS011;21112;51.976;5.660;2022-07-05T03:34:51;3.33;;;1.25;;
34900;SDS011;21112;51.976;5.660;2022-07-05T03:37:20;1.73;;;1.08;;
34900;SDS011;21112;51.976;5.660;2022-07-05T03:39:47;3.15;;;1.05;;
34900;SDS011;21112;51.976;5.660;2022-07-05T03:42:15;2.30;;;1.20;;
34900;SDS011;21112;51.976;5.660;2022-07-05T03:44:42;2.22;;;1.30;;
34900;SDS011;21112;51.976;5.660;2022-07-05T03:47:09;2.22;;;1.13;;
34900;SDS011;21112;51.976;5.660;2022-07-05T03:49:35;2.53;;;1.10;;
34900;SDS011;21112;51.976;5.660;2022-07-05T03:52:02;2.28;;;1.20;;
34900;SDS011;21112;51.976;5.660;2022-07-05T03:54:29;2.00;;;1.20;;
34900;SDS011;21112;51.976;5.660;2022-07-05T03:56:55;3.42;;;1.48;;
34900;SDS011;21112;51.976;5.660;2022-07-05T03:59:23;5.22;;;1.17;;
34900;SDS011;21112;51.976;5.660;2022-07-05T04:01:50;2.13;;;1.23;;
34900;SDS011;21112;51.976;5.660;2022-07-05T04:04:16;4.22;;;1.45;;
34900;SDS011;21112;51.976;5.660;2022-07-05T04:06:45;2.33;;;1.20;;
34900;SDS011;21112;51.976;5.660;2022-07-05T04:09:12;2.20;;;1.13;;
34900;SDS011;21112;51.976;5.660;2022-07-05T04:11:38;2.25;;;1.20;;
34900;SDS011;21112;51.976;5.660;2022-07-05T04:14:05;2.47;;;1.15;;
34900;SDS011;21112;51.976;5.660;2022-07-05T04:16:41;2.67;;;1.40;;
34900;SDS011;21112;51.976;5.660;2022-07-05T04:19:08;2.47;;;1.13;;
34900;SDS011;21112;51.976;5.660;2022-07-05T04:21:34;2.15;;;1.02;;
34900;SDS011;21112;51.976;5.660;2022-07-05T04:24:01;2.33;;;1.30;;
34900;SDS011;21112;51.976;5.660;2022-07-05T04:26:28;2.67;;;1.30;;
34900;SDS011;21112;51.976;5.660;2022-07-05T04:28:54;2.25;;;1.08;;
34900;SDS011;21112;51.976;5.660;2022-07-05T04:31:21;2.00;;;1.23;;
34900;SDS011;21112;51.976;5.660;2022-07-05T04:33:49;2.85;;;1.13;;
34900;SDS011;21112;51.976;5.660;2022-07-05T04:36:15;1.85;;;1.17;;
34900;SDS011;21112;51.976;5.660;2022-07-05T04:38:42;2.75;;;1.35;;
34900;SDS011;21112;51.976;5.660;2022-07-05T04:41:08;1.83;;;1.30;;
34900;SDS011;21112;51.976;5.660;2022-07-05T04:43:35;1.88;;;1.20;;
34900;SDS011;21112;51.976;5.660;2022-07-05T04:46:02;2.53;;;1.23;;
34900;SDS011;21112;51.976;5.660;2022-07-05T04:48:28;2.33;;;1.10;;
34900;SDS011;21112;51.976;5.660;2022-07-05T04:50:56;4.60;;;1.30;;
34900;SDS011;21112;51.976;5.660;2022-07-05T04:53:23;4.32;;;1.30;;
34900;SDS011;21112;51.976;5.660;2022-07-05T04:55:49;2.30;;;1.40;;
34900;SDS011;21112;51.976;5.660;2022-07-05T04:58:16;4.53;;;1.38;;
34900;SDS011;21112;51.976;5.660;2022-07-05T05:00:42;5.68;;;2.67;;
34900;SDS011;21112;51.976;5.660;2022-07-05T05:06:24;4.60;;;1.95;;
34900;SDS011;21112;51.976;5.660;2022-07-05T05:08:51;5.30;;;2.25;;
34900;SDS011;21112;51.976;5.660;2022-07-05T05:11:18;3.00;;;1.50;;
34900;SDS011;21112;51.976;5.660;2022-07-05T05:13:44;1.98;;;1.23;;
34900;SDS011;21112;51.976;5.660;2022-07-05T05:16:12;4.03;;;1.40;;
34900;SDS011;21112;51.976;5.660;2022-07-05T05:18:38;2.00;;;1.20;;
34900;SDS011;21112;51.976;5.660;2022-07-05T05:21:05;3.47;;;1.42;;
34900;SDS011;21112;51.976;5.660;2022-07-05T05:23:33;8.80;;;2.83;;
34900;SDS011;21112;51.976;5.660;2022-07-05T05:25:59;7.82;;;3.95;;
34900;SDS011;21112;51.976;5.660;2022-07-05T05:28:26;3.83;;;2.08;;
34900;SDS011;21112;51.976;5.660;2022-07-05T05:30:52;7.20;;;2.72;;
34900;SDS011;21112;51.976;5.660;2022-07-05T05:33:19;3.70;;;1.88;;
34900;SDS011;21112;51.976;5.660;2022-07-05T05:35:47;5.40;;;2.90;;
34900;SDS011;21112;51.976;5.660;2022-07-05T05:38:15;13.88;;;5.93;;
34900;SDS011;21112;51.976;5.660;2022-07-05T05:40:44;6.70;;;3.73;;
34900;SDS011;21112;51.976;5.660;2022-07-05T05:43:10;13.25;;;5.47;;
34900;SDS011;21112;51.976;5.660;2022-07-05T05:45:37;4.63;;;2.80;;
34900;SDS011;21112;51.976;5.660;2022-07-05T05:48:04;12.23;;;4.90;;
34900;SDS011;21112;51.976;5.660;2022-07-05T05:50:32;12.13;;;6.10;;
34900;SDS011;21112;51.976;5.660;2022-07-05T05:55:26;10.52;;;5.00;;
34900;SDS011;21112;51.976;5.660;2022-07-05T05:57:54;10.45;;;4.75;;
34900;SDS011;21112;51.976;5.660;2022-07-05T06:00:22;5.60;;;2.60;;
34900;SDS011;21112;51.976;5.660;2022-07-05T06:02:50;4.80;;;1.73;;
34900;SDS011;21112;51.976;5.660;2022-07-05T06:05:17;5.80;;;2.50;;
34900;SDS011;21112;51.976;5.660;2022-07-05T06:07:44;12.05;;;4.35;;
34900;SDS011;21112;51.976;5.660;2022-07-05T06:12:46;13.13;;;6.25;;
34900;SDS011;21112;51.976;5.660;2022-07-05T06:15:14;6.15;;;3.38;;
34900;SDS011;21112;51.976;5.660;2022-07-05T06:17:42;14.88;;;8.15;;
34900;SDS011;21112;51.976;5.660;2022-07-05T06:20:09;15.43;;;6.97;;
34900;SDS011;21112;51.976;5.660;2022-07-05T06:22:36;12.05;;;4.60;;
34900;SDS011;21112;51.976;5.660;2022-07-05T06:25:03;17.55;;;6.82;;
34900;SDS011;21112;51.976;5.660;2022-07-05T06:27:29;13.93;;;8.20;;
34900;SDS011;21112;51.976;5.660;2022-07-05T06:29:56;7.00;;;3.60;;
34900;SDS011;21112;51.976;5.660;2022-07-05T06:32:24;6.05;;;3.38;;
34900;SDS011;21112;51.976;5.660;2022-07-05T06:34:52;12.60;;;6.20;;
34900;SDS011;21112;51.976;5.660;2022-07-05T06:37:19;15.15;;;7.07;;
34900;SDS011;21112;51.976;5.660;2022-07-05T06:39:45;9.38;;;3.45;;
34900;SDS011;21112;51.976;5.660;2022-07-05T06:42:12;12.57;;;5.35;;
34900;SDS011;21112;51.976;5.660;2022-07-05T06:44:39;10.10;;;3.95;;
34900;SDS011;21112;51.976;5.660;2022-07-05T06:47:06;5.75;;;3.22;;
34900;SDS011;21112;51.976;5.660;2022-07-05T06:49:34;10.80;;;5.53;;
34900;SDS011;21112;51.976;5.660;2022-07-05T06:52:01;14.55;;;5.93;;
34900;SDS011;21112;51.976;5.660;2022-07-05T06:54:28;12.63;;;7.22;;
34900;SDS011;21112;51.976;5.660;2022-07-05T06:56:56;7.53;;;3.90;;
34900;SDS011;21112;51.976;5.660;2022-07-05T06:59:22;10.67;;;5.67;;
34900;SDS011;21112;51.976;5.660;2022-07-05T07:01:49;12.57;;;6.53;;
34900;SDS011;21112;51.976;5.660;2022-07-05T07:07:24;10.30;;;5.20;;
34900;SDS011;21112;51.976;5.660;2022-07-05T07:10:08;9.65;;;4.55;;
34900;SDS011;21112;51.976;5.660;2022-07-05T07:12:35;13.00;;;6.70;;
34900;SDS011;21112;51.976;5.660;2022-07-05T07:15:02;12.27;;;7.35;;
34900;SDS011;21112;51.976;5.660;2022-07-05T07:17:30;11.52;;;5.53;;
34900;SDS011;21112;51.976;5.660;2022-07-05T07:19:56;11.77;;;5.13;;
34900;SDS011;21112;51.976;5.660;2022-07-05T07:22:24;14.93;;;7.65;;
34900;SDS011;21112;51.976;5.660;2022-07-05T07:24:50;9.07;;;4.32;;
34900;SDS011;21112;51.976;5.660;2022-07-05T07:27:17;8.93;;;4.45;;
34900;SDS011;21112;51.976;5.660;2022-07-05T07:29:43;8.80;;;4.05;;
34900;SDS011;21112;51.976;5.660;2022-07-05T07:32:12;10.95;;;4.05;;
34900;SDS011;21112;51.976;5.660;2022-07-05T07:34:38;10.30;;;4.65;;
34900;SDS011;21112;51.976;5.660;2022-07-05T07:37:05;6.65;;;3.30;;
34900;SDS011;21112;51.976;5.660;2022-07-05T07:42:01;7.55;;;2.75;;
34900;SDS011;21112;51.976;5.660;2022-07-05T07:44:28;10.32;;;4.72;;
34900;SDS011;21112;51.976;5.660;2022-07-05T07:46:55;6.40;;;2.92;;
34900;SDS011;21112;51.976;5.660;2022-07-05T07:49:21;14.38;;;4.47;;
34900;SDS011;21112;51.976;5.660;2022-07-05T07:51:53;11.57;;;4.70;;
34900;SDS011;21112;51.976;5.660;2022-07-05T07:54:19;7.33;;;3.27;;
34900;SDS011;21112;51.976;5.660;2022-07-05T07:56:46;7.53;;;4.13;;
34900;SDS011;21112;51.976;5.660;2022-07-05T07:59:14;7.68;;;3.17;;
34900;SDS011;21112;51.976;5.660;2022-07-05T09:01:14;8.50;;;4.50;;
34900;SDS011;21112;51.976;5.660;2022-07-05T09:07:05;8.98;;;3.22;;
34900;SDS011;21112;51.976;5.660;2022-07-05T09:11:59;5.18;;;2.05;;
34900;SDS011;21112;51.976;5.660;2022-07-05T09:14:26;9.55;;;3.60;;
34900;SDS011;21112;51.976;5.660;2022-07-05T09:22:57;12.90;;;3.70;;
34900;SDS011;21112;51.976;5.660;2022-07-05T09:25:25;5.55;;;2.60;;
34900;SDS011;21112;51.976;5.660;2022-07-05T09:27:54;5.22;;;2.17;;
34900;SDS011;21112;51.976;5.660;2022-07-05T09:30:30;6.32;;;2.45;;
34900;SDS011;21112;51.976;5.660;2022-07-05T09:33:07;4.33;;;1.90;;
34900;SDS011;21112;51.976;5.660;2022-07-05T09:35:35;8.50;;;4.00;;
34900;SDS011;21112;51.976;5.660;2022-07-05T09:38:03;7.85;;;3.65;;
34900;SDS011;21112;51.976;5.660;2022-07-05T09:40:30;5.70;;;2.90;;
34900;SDS011;21112;51.976;5.660;2022-07-05T09:45:39;9.50;;;3.97;;
34900;SDS011;21112;51.976;5.660;2022-07-05T09:48:07;9.00;;;3.78;;
34900;SDS011;21112;51.976;5.660;2022-07-05T09:50:34;6.70;;;3.08;;
34900;SDS011;21112;51.976;5.660;2022-07-05T09:53:02;7.28;;;3.35;;
34900;SDS011;21112;51.976;5.660;2022-07-05T09:57:56;10.70;;;5.35;;
34900;SDS011;21112;51.976;5.660;2022-07-05T10:00:22;17.15;;;5.72;;
34900;SDS011;21112;51.976;5.660;2022-07-05T10:02:49;7.38;;;3.22;;
34900;SDS011;21112;51.976;5.660;2022-07-05T10:05:18;8.23;;;3.57;;
34900;SDS011;21112;51.976;5.660;2022-07-05T10:07:46;7.10;;;2.63;;
34900;SDS011;21112;51.976;5.660;2022-07-05T10:10:16;6.32;;;2.28;;
34900;SDS011;21112;51.976;5.660;2022-07-05T10:12:43;4.43;;;2.13;;
34900;SDS011;21112;51.976;5.660;2022-07-05T10:15:11;6.47;;;2.05;;
34900;SDS011;21112;51.976;5.660;2022-07-05T10:17:40;6.15;;;2.75;;
34900;SDS011;21112;51.976;5.660;2022-07-05T10:20:09;5.47;;;2.35;;
34900;SDS011;21112;51.976;5.660;2022-07-05T10:22:37;4.18;;;2.35;;
34900;SDS011;21112;51.976;5.660;2022-07-05T10:25:05;5.22;;;2.40;;
34900;SDS011;21112;51.976;5.660;2022-07-05T10:27:33;8.32;;;3.08;;
34900;SDS011;21112;51.976;5.660;2022-07-05T10:30:01;4.57;;;2.10;;
34900;SDS011;21112;51.976;5.660;2022-07-05T10:32:28;6.30;;;2.15;;
34900;SDS011;21112;51.976;5.660;2022-07-05T10:34:55;4.47;;;2.00;;
34900;SDS011;21112;51.976;5.660;2022-07-05T10:37:25;4.38;;;1.85;;
34900;SDS011;21112;51.976;5.660;2022-07-05T10:39:53;4.25;;;1.88;;
34900;SDS011;21112;51.976;5.660;2022-07-05T10:42:20;4.13;;;1.88;;
34900;SDS011;21112;51.976;5.660;2022-07-05T10:44:48;5.07;;;1.73;;
34900;SDS011;21112;51.976;5.660;2022-07-05T10:47:14;5.97;;;2.08;;
34900;SDS011;21112;51.976;5.660;2022-07-05T10:49:44;3.58;;;1.40;;
34900;SDS011;21112;51.976;5.660;2022-07-05T10:52:25;3.67;;;1.40;;
34900;SDS011;21112;51.976;5.660;2022-07-05T10:57:43;3.58;;;1.30;;
34900;SDS011;21112;51.976;5.660;2022-07-05T11:00:12;2.30;;;1.30;;
34900;SDS011;21112;51.976;5.660;2022-07-05T11:02:39;4.20;;;1.13;;
34900;SDS011;21112;51.976;5.660;2022-07-05T11:05:05;3.05;;;1.10;;
34900;SDS011;21112;51.976;5.660;2022-07-05T11:10:18;2.40;;;1.20;;
34900;SDS011;21112;51.976;5.660;2022-07-05T11:12:45;7.25;;;1.15;;
34900;SDS011;21112;51.976;5.660;2022-07-05T11:15:13;4.32;;;1.30;;
34900;SDS011;21112;51.976;5.660;2022-07-05T11:17:41;1.42;;;1.00;;
34900;SDS011;21112;51.976;5.660;2022-07-05T11:20:12;3.97;;;0.85;;
34900;SDS011;21112;51.976;5.660;2022-07-05T11:22:40;2.40;;;1.00;;
34900;SDS011;21112;51.976;5.660;2022-07-05T11:25:08;5.68;;;1.00;;
34900;SDS011;21112;51.976;5.660;2022-07-05T11:30:03;3.10;;;0.90;;
34900;SDS011;21112;51.976;5.660;2022-07-05T11:32:38;1.75;;;0.90;;
34900;SDS011;21112;51.976;5.660;2022-07-05T11:35:11;1.95;;;0.80;;
34900;SDS011;21112;51.976;5.660;2022-07-05T11:37:56;1.33;;;0.75;;
34900;SDS011;21112;51.976;5.660;2022-07-05T11:40:27;2.90;;;1.05;;
34900;SDS011;21112;51.976;5.660;2022-07-05T11:42:54;2.80;;;0.80;;
34900;SDS011;21112;51.976;5.660;2022-07-05T11:45:21;2.10;;;0.90;;
34900;SDS011;21112;51.976;5.660;2022-07-05T11:47:49;2.70;;;1.27;;
34900;SDS011;21112;51.976;5.660;2022-07-05T11:50:16;5.55;;;1.05;;
34900;SDS011;21112;51.976;5.660;2022-07-05T11:52:43;1.90;;;0.80;;
34900;SDS011;21112;51.976;5.660;2022-07-05T11:55:11;2.30;;;0.90;;
34900;SDS011;21112;51.976;5.660;2022-07-05T11:57:38;2.78;;;0.85;;
34900;SDS011;21112;51.976;5.660;2022-07-05T12:00:14;1.27;;;0.80;;
34900;SDS011;21112;51.976;5.660;2022-07-05T12:02:52;2.43;;;0.90;;
34900;SDS011;21112;51.976;5.660;2022-07-05T12:05:30;5.30;;;0.80;;
34900;SDS011;21112;51.976;5.660;2022-07-05T12:07:56;2.72;;;0.90;;
34900;SDS011;21112;51.976;5.660;2022-07-05T12:10:23;3.03;;;0.88;;
34900;SDS011;21112;51.976;5.660;2022-07-05T12:13:08;3.22;;;0.90;;
34900;SDS011;21112;51.976;5.660;2022-07-05T12:15:35;5.15;;;0.90;;
34900;SDS011;21112;51.976;5.660;2022-07-05T12:18:04;3.53;;;0.95;;
34900;SDS011;21112;51.976;5.660;2022-07-05T12:20:32;3.92;;;1.13;;
34900;SDS011;21112;51.976;5.660;2022-07-05T12:22:58;3.20;;;0.80;;
34900;SDS011;21112;51.976;5.660;2022-07-05T12:25:26;3.15;;;1.00;;
34900;SDS011;21112;51.976;5.660;2022-07-05T12:27:56;4.75;;;1.10;;
34900;SDS011;21112;51.976;5.660;2022-07-05T12:30:23;3.85;;;1.02;;
34900;SDS011;21112;51.976;5.660;2022-07-05T12:32:54;2.53;;;0.95;;
34900;SDS011;21112;51.976;5.660;2022-07-05T12:35:29;2.97;;;0.80;;
34900;SDS011;21112;51.976;5.660;2022-07-05T12:37:56;2.13;;;0.98;;
34900;SDS011;21112;51.976;5.660;2022-07-05T12:40:22;2.72;;;0.77;;
34900;SDS011;21112;51.976;5.660;2022-07-05T12:42:59;3.50;;;1.00;;
34900;SDS011;21112;51.976;5.660;2022-07-05T12:45:26;5.22;;;1.05;;
34900;SDS011;21112;51.976;5.660;2022-07-05T12:47:53;1.55;;;0.60;;
34900;SDS011;21112;51.976;5.660;2022-07-05T12:50:20;2.00;;;1.00;;
34900;SDS011;21112;51.976;5.660;2022-07-05T12:53:04;3.30;;;0.85;;
34900;SDS011;21112;51.976;5.660;2022-07-05T12:55:46;3.58;;;1.13;;
34900;SDS011;21112;51.976;5.660;2022-07-05T12:58:29;3.28;;;0.85;;
34900;SDS011;21112;51.976;5.660;2022-07-05T13:03:21;3.78;;;1.05;;
34900;SDS011;21112;51.976;5.660;2022-07-05T13:05:59;0.88;;;0.68;;
34900;SDS011;21112;51.976;5.660;2022-07-05T13:08:30;2.50;;;0.90;;
34900;SDS011;21112;51.976;5.660;2022-07-05T13:10:57;2.95;;;0.90;;
34900;SDS011;21112;51.976;5.660;2022-07-05T13:13:23;3.35;;;0.90;;
34900;SDS011;21112;51.976;5.660;2022-07-05T13:15:50;2.30;;;0.90;;
34900;SDS011;21112;51.976;5.660;2022-07-05T13:18:23;4.65;;;1.38;;
34900;SDS011;21112;51.976;5.660;2022-07-05T13:20:49;2.80;;;1.00;;
34900;SDS011;21112;51.976;5.660;2022-07-05T13:23:16;2.67;;;0.70;;
34900;SDS011;21112;51.976;5.660;2022-07-05T13:25:44;3.33;;;1.05;;
34900;SDS011;21112;51.976;5.660;2022-07-05T13:28:11;3.45;;;1.10;;
34900;SDS011;21112;51.976;5.660;2022-07-05T13:30:38;3.88;;;1.00;;
34900;SDS011;21112;51.976;5.660;2022-07-05T13:33:04;2.67;;;0.80;;
34900;SDS011;21112;51.976;5.660;2022-07-05T13:35:31;6.13;;;0.77;;
34900;SDS011;21112;51.976;5.660;2022-07-05T13:37:57;3.40;;;0.90;;
34900;SDS011;21112;51.976;5.660;2022-07-05T13:40:24;4.32;;;0.90;;
34900;SDS011;21112;51.976;5.660;2022-07-05T13:42:53;5.85;;;0.90;;
34900;SDS011;21112;51.976;5.660;2022-07-05T13:45:19;2.95;;;1.05;;
34900;SDS011;21112;51.976;5.660;2022-07-05T13:47:46;8.02;;;1.00;;
34900;SDS011;21112;51.976;5.660;2022-07-05T13:50:13;1.48;;;0.80;;
34900;SDS011;21112;51.976;5.660;2022-07-05T13:52:58;2.67;;;0.63;;
34900;SDS011;21112;51.976;5.660;2022-07-05T13:55:24;2.78;;;0.85;;
34900;SDS011;21112;51.976;5.660;2022-07-05T13:57:52;2.97;;;0.82;;
34900;SDS011;21112;51.976;5.660;2022-07-05T14:00:19;4.03;;;0.98;;
34900;SDS011;21112;51.976;5.660;2022-07-05T14:02:46;4.38;;;0.80;;
34900;SDS011;21112;51.976;5.660;2022-07-05T14:05:13;2.33;;;0.73;;
34900;SDS011;21112;51.976;5.660;2022-07-05T14:07:41;4.85;;;0.90;;
34900;SDS011;21112;51.976;5.660;2022-07-05T14:10:08;2.55;;;0.85;;
34900;SDS011;21112;51.976;5.660;2022-07-05T14:12:35;3.75;;;0.77;;
34900;SDS011;21112;51.976;5.660;2022-07-05T14:15:04;4.60;;;1.08;;
34900;SDS011;21112;51.976;5.660;2022-07-05T14:17:31;4.20;;;0.88;;
34900;SDS011;21112;51.976;5.660;2022-07-05T14:19:57;1.48;;;0.60;;
34900;SDS011;21112;51.976;5.660;2022-07-05T14:22:24;1.75;;;0.80;;
34900;SDS011;21112;51.976;5.660;2022-07-05T14:24:51;1.67;;;0.75;;
34900;SDS011;21112;51.976;5.660;2022-07-05T14:27:17;1.13;;;0.80;;
34900;SDS011;21112;51.976;5.660;2022-07-05T14:29:44;1.55;;;0.77;;
34900;SDS011;21112;51.976;5.660;2022-07-05T14:32:12;3.33;;;0.85;;
34900;SDS011;21112;51.976;5.660;2022-07-05T14:34:39;1.80;;;0.80;;
34900;SDS011;21112;51.976;5.660;2022-07-05T14:37:05;1.00;;;0.75;;
34900;SDS011;21112;51.976;5.660;2022-07-05T14:39:32;2.47;;;0.63;;
34900;SDS011;21112;51.976;5.660;2022-07-05T14:41:59;1.00;;;0.70;;
34900;SDS011;21112;51.976;5.660;2022-07-05T14:46:54;3.35;;;0.80;;
34900;SDS011;21112;51.976;5.660;2022-07-05T14:49:22;2.25;;;0.70;;
34900;SDS011;21112;51.976;5.660;2022-07-05T14:51:50;2.33;;;0.98;;
34900;SDS011;21112;51.976;5.660;2022-07-05T14:54:17;1.40;;;0.73;;
34900;SDS011;21112;51.976;5.660;2022-07-05T14:56:44;1.75;;;0.70;;
34900;SDS011;21112;51.976;5.660;2022-07-05T14:59:10;1.55;;;0.80;;
34900;SDS011;21112;51.976;5.660;2022-07-05T15:01:37;4.15;;;0.88;;
34900;SDS011;21112;51.976;5.660;2022-07-05T15:04:04;4.25;;;0.80;;
34900;SDS011;21112;51.976;5.660;2022-07-05T15:06:32;1.13;;;0.60;;
34900;SDS011;21112;51.976;5.660;2022-07-05T15:08:58;2.00;;;0.73;;
34900;SDS011;21112;51.976;5.660;2022-07-05T15:11:27;3.28;;;0.90;;
34900;SDS011;21112;51.976;5.660;2022-07-05T15:13:54;2.10;;;0.82;;
34900;SDS011;21112;51.976;5.660;2022-07-05T15:16:21;2.67;;;1.48;;
34900;SDS011;21112;51.976;5.660;2022-07-05T15:18:47;5.90;;;1.30;;
34900;SDS011;21112;51.976;5.660;2022-07-05T15:21:14;5.53;;;1.70;;
34900;SDS011;21112;51.976;5.660;2022-07-05T15:23:42;4.07;;;1.60;;
34900;SDS011;21112;51.976;5.660;2022-07-05T15:26:08;3.38;;;1.42;;
34900;SDS011;21112;51.976;5.660;2022-07-05T15:28:35;4.05;;;1.50;;
34900;SDS011;21112;51.976;5.660;2022-07-05T15:31:02;4.95;;;1.10;;
34900;SDS011;21112;51.976;5.660;2022-07-05T15:33:28;2.63;;;1.20;;
34900;SDS011;21112;51.976;5.660;2022-07-05T15:35:55;3.20;;;1.38;;
34900;SDS011;21112;51.976;5.660;2022-07-05T15:38:22;1.13;;;0.90;;
34900;SDS011;21112;51.976;5.660;2022-07-05T15:40:52;4.10;;;1.00;;
34900;SDS011;21112;51.976;5.660;2022-07-05T15:43:20;2.40;;;0.80;;
34900;SDS011;21112;51.976;5.660;2022-07-05T15:45:50;1.40;;;0.80;;
34900;SDS011;21112;51.976;5.660;2022-07-05T15:48:16;1.33;;;0.85;;
34900;SDS011;21112;51.976;5.660;2022-07-05T15:50:44;2.50;;;1.00;;
34900;SDS011;21112;51.976;5.660;2022-07-05T15:53:10;3.90;;;1.10;;
34900;SDS011;21112;51.976;5.660;2022-07-05T15:55:37;2.13;;;0.80;;
34900;SDS011;21112;51.976;5.660;2022-07-05T15:58:05;2.63;;;0.82;;
34900;SDS011;21112;51.976;5.660;2022-07-05T16:00:31;4.18;;;1.17;;
34900;SDS011;21112;51.976;5.660;2022-07-05T16:02:58;4.85;;;0.93;;
34900;SDS011;21112;51.976;5.660;2022-07-05T16:05:25;1.50;;;0.68;;
34900;SDS011;21112;51.976;5.660;2022-07-05T16:07:51;2.28;;;0.80;;
34900;SDS011;21112;51.976;5.660;2022-07-05T16:10:18;2.03;;;0.60;;
34900;SDS011;21112;51.976;5.660;2022-07-05T16:12:46;3.43;;;1.10;;
34900;SDS011;21112;51.976;5.660;2022-07-05T16:15:14;2.20;;;1.00;;
34900;SDS011;21112;51.976;5.660;2022-07-05T16:18:01;2.35;;;1.05;;
34900;SDS011;21112;51.976;5.660;2022-07-05T16:20:28;2.47;;;1.10;;
34900;SDS011;21112;51.976;5.660;2022-07-05T16:22:55;2.83;;;0.85;;
34900;SDS011;21112;51.976;5.660;2022-07-05T16:25:22;3.08;;;0.90;;
34900;SDS011;21112;51.976;5.660;2022-07-05T16:27:49;3.35;;;0.77;;
34900;SDS011;21112;51.976;5.660;2022-07-05T16:30:17;1.88;;;0.75;;
34900;SDS011;21112;51.976;5.660;2022-07-05T16:32:43;1.70;;;0.82;;
34900;SDS011;21112;51.976;5.660;2022-07-05T16:35:10;1.92;;;0.80;;
34900;SDS011;21112;51.976;5.660;2022-07-05T16:37:36;2.67;;;0.90;;
34900;SDS011;21112;51.976;5.660;2022-07-05T16:40:03;4.22;;;0.88;;